Terminal Aerodrome Forecast
Issued by NWS Memphis, TN

Home | Current Version | Previous Version | Text Only | Print | Product List | Glossary On
Versions: 1 2 3 4 5 6 7 8 9 10 11 12 13 14 15 16 17 18 19
000
FTUS44 KMEG 171725
TAFJBR
TAF
KJBR 171725Z 1718/1818 23006KT P6SM VCSH BKN012 OVC025
      TEMPO 1718/1720 OVC006
     FM172000 27008KT P6SM BKN015
     FM172300 32005KT P6SM SCT012 OVC035
     FM180400 02004KT 5SM BR SCT015
     FM180800 06003KT 3SM BR BKN007
     FM181500 11008KT P6SM FEW015 BKN250=

USA.gov is the U.S. government's official web portal to all federal, state and local government web resources and services.